createdAt,value
2023-01-17T00:02:08.144Z,92721.84
2023-01-17T00:05:08.332Z,92716.91
2023-01-17T00:07:55.273Z,92718.31
2023-01-17T00:10:24.850Z,92723.53
2023-01-17T00:12:54.863Z,92727.44
2023-01-17T00:15:23.522Z,92722.09
2023-01-17T00:17:51.817Z,92730.44
2023-01-17T00:20:42.265Z,92740.22
2023-01-17T00:23:33.528Z,92731.84
2023-01-17T00:26:04.129Z,92726.03
2023-01-17T00:28:32.382Z,92731.28
2023-01-17T00:30:58.982Z,92736.75
2023-01-17T00:33:25.921Z,92744.19
2023-01-17T00:35:56.784Z,92745.75
2023-01-17T00:38:25.933Z,92747.63
2023-01-17T00:40:53.015Z,92764.16
2023-01-17T00:43:40.093Z,92762.13
2023-01-17T00:46:28.510Z,92752.22
2023-01-17T00:49:13.986Z,92762.13
2023-01-17T00:51:59.367Z,92775.75
2023-01-17T00:54:46.143Z,92773.84
2023-01-17T00:57:33.982Z,92781.69
2023-01-17T01:00:19.404Z,92772.72
2023-01-17T01:03:04.766Z,92772.22
2023-01-17T01:05:50.033Z,92782.25
2023-01-17T01:08:38.496Z,92782.25
2023-01-17T01:11:26.628Z,92786.63
2023-01-17T01:14:12.057Z,92792.78
2023-01-17T01:16:57.450Z,92792.94
2023-01-17T01:19:42.792Z,92804.53
2023-01-17T01:22:28.220Z,92799.59
2023-01-17T01:25:13.425Z,92803.38
2023-01-17T01:28:00.182Z,92813.88
2023-01-17T01:30:45.563Z,92804.44
2023-01-17T01:33:18.810Z,92808.06
2023-01-17T01:35:47.457Z,92804.28
2023-01-17T01:38:15.208Z,92810.72
2023-01-17T01:40:44.712Z,92804.31
2023-01-17T01:43:16.021Z,92802.63
2023-01-17T01:45:48.221Z,92816.09
2023-01-17T01:48:32.806Z,92807.72
2023-01-17T01:51:01.989Z,92802.84
2023-01-17T01:53:29.938Z,92806.19
2023-01-17T01:55:57.687Z,92807.53
2023-01-17T01:58:29.772Z,92811.28
2023-01-17T02:00:57.513Z,92804.06
2023-01-17T02:03:29.420Z,92808.91
2023-01-17T02:06:01.880Z,92818.53
2023-01-17T02:08:29.896Z,92812.69
2023-01-17T02:10:59.432Z,92812.59
2023-01-17T02:13:29.174Z,92817.75
2023-01-17T02:16:03.517Z,92810.59
2023-01-17T02:18:47.341Z,92812.78
2023-01-17T02:21:24.734Z,92816.38
2023-01-17T02:24:16.691Z,92817.84
2023-01-17T02:27:04.117Z,92823.31
2023-01-17T02:30:05.371Z,92818.28
2023-01-17T02:32:56.703Z,92824.31
2023-01-17T02:35:34.593Z,92823.91
2023-01-17T02:38:14.004Z,92820.16
2023-01-17T02:40:48.539Z,92817.69
2023-01-17T02:43:19.472Z,92817.41
2023-01-17T02:45:47.397Z,92804.31
2023-01-17T02:48:19.035Z,92808.47
2023-01-17T02:51:08.394Z,92812.22
2023-01-17T02:53:46.728Z,92811.16
2023-01-17T02:56:25.719Z,92810.47
2023-01-17T02:59:10.680Z,92806.22
2023-01-17T03:01:48.994Z,92810.84
2023-01-17T03:04:24.099Z,92810.56
2023-01-17T03:06:55.686Z,92813.81
2023-01-17T03:09:25.129Z,92809.28
2023-01-17T03:11:53.563Z,92816.59
2023-01-17T03:14:21.574Z,92824.00
2023-01-17T03:16:49.324Z,92824.22
2023-01-17T03:19:18.385Z,92818.16
2023-01-17T03:21:46.045Z,92828.75
2023-01-17T03:24:13.752Z,92825.38
2023-01-17T03:26:44.858Z,92824.41
2023-01-17T03:29:12.558Z,92822.34
2023-01-17T03:31:40.230Z,92833.19
2023-01-17T03:34:07.878Z,92833.09
2023-01-17T03:36:36.948Z,92837.72
2023-01-17T03:39:04.689Z,92826.53
2023-01-17T03:41:32.390Z,92829.81
2023-01-17T03:44:00.856Z,92823.56
2023-01-17T03:46:29.607Z,92829.13
2023-01-17T03:48:57.240Z,92819.72
2023-01-17T03:51:24.961Z,92821.97
2023-01-17T03:53:54.199Z,92821.81
2023-01-17T03:56:22.285Z,92832.78
2023-01-17T03:58:49.969Z,92829.97
2023-01-17T04:01:17.742Z,92826.72
2023-01-17T04:03:45.568Z,92837.97
2023-01-17T04:06:13.263Z,92836.28
2023-01-17T04:08:41.595Z,92836.16
2023-01-17T04:11:10.726Z,92830.75
2023-01-17T04:13:38.387Z,92827.19
2023-01-17T04:16:07.286Z,92822.84
2023-01-17T04:18:37.294Z,92823.63
2023-01-17T04:21:05.348Z,92840.72
2023-01-17T04:23:33.041Z,92838.34
2023-01-17T04:26:03.688Z,92842.91
2023-01-17T04:28:32.758Z,92842.88
2023-01-17T04:31:04.660Z,92837.16
2023-01-17T04:33:32.408Z,92841.63
2023-01-17T04:36:00.269Z,92842.59
2023-01-17T04:38:27.939Z,92844.31
2023-01-17T04:40:55.684Z,92844.94
2023-01-17T04:43:23.416Z,92844.25
2023-01-17T04:45:57.091Z,92841.41
2023-01-17T04:48:25.090Z,92839.88
2023-01-17T04:50:52.815Z,92843.63
2023-01-17T04:53:20.477Z,92846.63
2023-01-17T04:55:48.212Z,92845.03
2023-01-17T04:58:15.912Z,92843.91
2023-01-17T05:00:43.645Z,92839.38
2023-01-17T05:03:12.705Z,92844.94
2023-01-17T05:05:40.385Z,92843.97
2023-01-17T05:08:08.071Z,92845.31
2023-01-17T05:10:35.753Z,92854.38
2023-01-17T05:13:03.963Z,92853.59
2023-01-17T05:15:31.812Z,92859.78
2023-01-17T05:17:59.725Z,92864.28
2023-01-17T05:20:28.747Z,92877.03
2023-01-17T05:22:59.855Z,92873.06
2023-01-17T05:25:30.362Z,92874.94
2023-01-17T05:27:59.974Z,92879.69
2023-01-17T05:30:28.165Z,92875.91
2023-01-17T05:32:57.313Z,92886.97
2023-01-17T05:35:27.273Z,92883.78
2023-01-17T05:37:56.885Z,92896.41
2023-01-17T05:40:26.865Z,92885.25
2023-01-17T05:42:57.137Z,92891.00
2023-01-17T05:45:26.451Z,92881.72
2023-01-17T05:47:55.877Z,92885.44
2023-01-17T05:50:27.891Z,92890.25
2023-01-17T05:52:58.758Z,92892.78
2023-01-17T05:55:28.429Z,92888.38
2023-01-17T05:57:56.585Z,92891.22
2023-01-17T06:00:25.316Z,92892.81
2023-01-17T06:02:54.974Z,92892.53
2023-01-17T06:05:23.864Z,92884.31
2023-01-17T06:07:51.841Z,92892.69
2023-01-17T06:10:23.154Z,92885.31
2023-01-17T06:12:54.237Z,92896.28
2023-01-17T06:15:21.885Z,92892.94
2023-01-17T06:17:49.565Z,92890.91
2023-01-17T06:20:17.426Z,92894.50
2023-01-17T06:22:45.083Z,92884.75
2023-01-17T06:25:12.736Z,92886.97
2023-01-17T06:27:41.763Z,92894.78
2023-01-17T06:30:10.741Z,92889.81
2023-01-17T06:32:38.395Z,92884.25
2023-01-17T06:35:06.618Z,92887.78
2023-01-17T06:37:34.320Z,92888.31
2023-01-17T06:40:01.947Z,92889.66
2023-01-17T06:42:29.649Z,92894.72
2023-01-17T06:44:58.645Z,92889.94
2023-01-17T06:47:26.283Z,92889.16
2023-01-17T06:49:53.946Z,92890.00
2023-01-17T06:52:23.361Z,92893.94
2023-01-17T06:54:50.986Z,92884.69
2023-01-17T06:57:18.673Z,92895.00
2023-01-17T06:59:48.436Z,92888.63
2023-01-17T07:02:17.425Z,92887.59
2023-01-17T07:04:45.085Z,92895.78
2023-01-17T07:07:12.740Z,92889.72
2023-01-17T07:09:40.475Z,92887.06
2023-01-17T07:12:08.409Z,92877.78
2023-01-17T07:14:36.082Z,92881.25
2023-01-17T07:17:05.215Z,92890.81
2023-01-17T07:19:34.281Z,92883.16
2023-01-17T07:22:01.946Z,92884.75
2023-01-17T07:24:29.585Z,92894.31
2023-01-17T07:26:57.210Z,92891.66
2023-01-17T07:29:24.857Z,92893.25
2023-01-17T07:31:52.553Z,92896.44
2023-01-17T07:34:20.232Z,92900.16
2023-01-17T07:36:49.756Z,92899.63
2023-01-17T07:39:17.408Z,92894.28
2023-01-17T07:41:45.102Z,92893.22
2023-01-17T07:44:17.713Z,92886.56
2023-01-17T07:46:45.478Z,92888.41
2023-01-17T07:49:14.494Z,92884.38
2023-01-17T07:51:42.176Z,92876.88
2023-01-17T07:54:12.480Z,92863.28
2023-01-17T07:56:45.522Z,92851.56
2023-01-17T07:59:13.207Z,92852.31
2023-01-17T08:01:41.004Z,92843.47
2023-01-17T08:04:09.385Z,92844.16
2023-01-17T08:06:40.555Z,92842.81
2023-01-17T08:09:08.236Z,92847.50
2023-01-17T08:11:37.280Z,92837.91
2023-01-17T08:14:05.013Z,92840.53
2023-01-17T08:16:32.707Z,92834.28
2023-01-17T08:19:00.391Z,92837.19
2023-01-17T08:21:28.226Z,92840.25
2023-01-17T08:23:55.907Z,92836.44
2023-01-17T08:26:23.891Z,92827.75
2023-01-17T08:28:57.480Z,92825.22
2023-01-17T08:31:25.650Z,92839.69
2023-01-17T08:33:53.458Z,92835.06
2023-01-17T08:36:21.279Z,92823.19
2023-01-17T08:38:52.745Z,92827.25
2023-01-17T08:41:21.462Z,92816.03
2023-01-17T08:43:49.824Z,92824.03
2023-01-17T08:46:19.634Z,92822.63
2023-01-17T08:48:47.556Z,92813.09
2023-01-17T08:51:15.368Z,92815.28
2023-01-17T08:53:43.102Z,92801.91
2023-01-17T08:56:10.834Z,92811.72
2023-01-17T08:58:38.520Z,92802.75
2023-01-17T09:01:07.446Z,92799.78
2023-01-17T09:03:38.858Z,92797.97
2023-01-17T09:06:09.717Z,92808.66
2023-01-17T09:08:38.367Z,92810.03
2023-01-17T09:11:07.540Z,92805.25
2023-01-17T09:13:35.576Z,92794.97
2023-01-17T09:16:03.981Z,92793.88
2023-01-17T09:18:32.879Z,92791.88
2023-01-17T09:21:11.051Z,92797.50
2023-01-17T09:23:38.738Z,92799.00
2023-01-17T09:26:06.781Z,92801.00
2023-01-17T09:28:40.961Z,92796.25
2023-01-17T09:31:09.279Z,92789.94
2023-01-17T09:33:37.461Z,92789.41
2023-01-17T09:36:07.307Z,92778.59
2023-01-17T09:38:35.004Z,92764.53
2023-01-17T09:41:04.201Z,92767.72
2023-01-17T09:43:40.966Z,92759.84
2023-01-17T09:46:22.327Z,92760.97
2023-01-17T09:48:52.515Z,92752.91
2023-01-17T09:51:24.201Z,92749.09
2023-01-17T09:53:53.885Z,92740.41
2023-01-17T09:56:29.635Z,92721.34
2023-01-17T09:59:18.802Z,92714.78
2023-01-17T10:01:57.942Z,92700.69
2023-01-17T10:04:51.328Z,92692.06
2023-01-17T10:07:34.050Z,92686.28
2023-01-17T10:10:19.586Z,92671.06
2023-01-17T10:12:53.615Z,92670.78
2023-01-17T10:15:39.306Z,92667.84
2023-01-17T10:18:29.944Z,92662.03
2023-01-17T10:21:05.489Z,92656.00
2023-01-17T10:24:06.563Z,92646.59
2023-01-17T10:26:36.652Z,92644.47
2023-01-17T10:29:14.064Z,92637.22
2023-01-17T10:31:45.952Z,92647.31
2023-01-17T10:34:18.063Z,92640.19
2023-01-17T10:36:50.742Z,92651.53
2023-01-17T10:39:23.488Z,92646.97
2023-01-17T10:41:56.479Z,92640.19
2023-01-17T10:44:29.907Z,92638.16
2023-01-17T10:47:03.124Z,92633.47
2023-01-17T10:49:31.742Z,92637.00
2023-01-17T10:52:20.117Z,92629.72
2023-01-17T10:55:04.055Z,92634.38
2023-01-17T10:57:41.664Z,92629.47
2023-01-17T11:00:29.101Z,92631.53
2023-01-17T11:02:57.421Z,92628.06
2023-01-17T11:05:28.241Z,92621.88
2023-01-17T11:08:00.839Z,92612.38
2023-01-17T11:10:39.900Z,92609.31
2023-01-17T11:13:21.974Z,92599.28
2023-01-17T11:15:52.581Z,92584.81
2023-01-17T11:18:22.391Z,92590.53
2023-01-17T11:20:50.798Z,92589.22
2023-01-17T11:23:21.889Z,92580.47
2023-01-17T11:25:55.137Z,92581.13
2023-01-17T11:28:26.243Z,92579.88
2023-01-17T11:30:55.836Z,92583.50
2023-01-17T11:33:45.020Z,92583.31
2023-01-17T11:36:19.044Z,92579.53
2023-01-17T11:38:57.944Z,92581.09
2023-01-17T11:41:29.198Z,92577.50
2023-01-17T11:43:59.872Z,92575.69
2023-01-17T11:46:29.703Z,92577.59
2023-01-17T11:48:59.620Z,92581.88
2023-01-17T11:51:30.440Z,92574.03
2023-01-17T11:54:14.265Z,92567.34
2023-01-17T11:56:46.158Z,92561.03
2023-01-17T11:59:31.535Z,92552.16
2023-01-17T12:02:25.442Z,92546.00
2023-01-17T12:05:02.284Z,92536.81
2023-01-17T12:07:37.106Z,92530.84
2023-01-17T12:10:10.583Z,92529.16
2023-01-17T12:13:08.307Z,92522.00
2023-01-17T12:15:52.848Z,92526.47
2023-01-17T12:18:37.088Z,92516.69
2023-01-17T12:21:17.502Z,92509.53
2023-01-17T12:24:25.097Z,92504.47
2023-01-17T12:27:03.338Z,92493.63
2023-01-17T12:29:47.014Z,92478.72
2023-01-17T12:32:41.656Z,92476.94
2023-01-17T12:35:16.244Z,92476.34
2023-01-17T12:37:46.443Z,92468.41
2023-01-17T12:40:23.923Z,92460.19
2023-01-17T12:42:57.544Z,92454.38
2023-01-17T12:45:31.986Z,92455.59
2023-01-17T12:48:05.665Z,92440.22
2023-01-17T12:50:38.920Z,92444.19
2023-01-17T12:53:18.179Z,92443.03
2023-01-17T12:55:52.714Z,92431.06
2023-01-17T12:58:23.614Z,92437.88
2023-01-17T13:01:00.487Z,92430.94
2023-01-17T13:03:42.477Z,92426.66
2023-01-17T13:06:23.074Z,92425.66
2023-01-17T13:08:53.922Z,92414.75
2023-01-17T13:11:27.814Z,92409.03
2023-01-17T13:13:57.525Z,92408.31
2023-01-17T13:16:34.488Z,92402.38
2023-01-17T13:19:10.014Z,92403.81
2023-01-17T13:21:37.769Z,92402.44
2023-01-17T13:24:26.962Z,92401.28
2023-01-17T13:27:07.972Z,92397.50
2023-01-17T13:29:52.292Z,92392.97
2023-01-17T13:32:46.994Z,92397.97
2023-01-17T13:35:23.452Z,92395.78
2023-01-17T13:38:09.441Z,92391.88
2023-01-17T13:40:40.890Z,92391.81
2023-01-17T13:43:15.182Z,92386.78
2023-01-17T13:45:52.176Z,92390.13
2023-01-17T13:48:30.189Z,92399.72
2023-01-17T13:50:59.251Z,92390.97
2023-01-17T13:53:59.962Z,92385.81
2023-01-17T13:56:35.692Z,92387.09
2023-01-17T13:59:28.966Z,92364.81
2023-01-17T14:01:57.157Z,92357.31
2023-01-17T14:05:01.627Z,92337.47
2023-01-17T14:07:30.335Z,92321.28
2023-01-17T14:09:58.384Z,92329.34
2023-01-17T14:12:32.129Z,92317.25
2023-01-17T14:15:02.137Z,92323.50
2023-01-17T14:17:56.173Z,92312.50
2023-01-17T14:20:43.954Z,92312.47
2023-01-17T14:23:36.454Z,92315.69
2023-01-17T14:26:23.320Z,92312.88
2023-01-17T14:28:54.005Z,92311.69
2023-01-17T14:31:24.020Z,92319.94
2023-01-17T14:33:51.867Z,92307.34
2023-01-17T14:36:29.447Z,92308.00
2023-01-17T14:38:57.177Z,92291.25
2023-01-17T14:41:28.314Z,92288.63
2023-01-17T14:43:57.373Z,92288.38
2023-01-17T14:46:28.357Z,92291.50
2023-01-17T14:49:02.615Z,92286.44
2023-01-17T14:51:35.093Z,92296.03
2023-01-17T14:54:05.496Z,92282.47
2023-01-17T14:56:34.120Z,92286.69
2023-01-17T14:59:14.398Z,92291.63
2023-01-17T15:01:42.859Z,92293.44
2023-01-17T15:04:24.908Z,92300.75
2023-01-17T15:06:55.430Z,92298.88
2023-01-17T15:09:26.698Z,92290.28
2023-01-17T15:11:55.840Z,92282.72
2023-01-17T15:14:27.234Z,92287.34
2023-01-17T15:16:55.590Z,92292.69
2023-01-17T15:19:24.109Z,92288.00
2023-01-17T15:21:55.297Z,92289.75
2023-01-17T15:24:26.715Z,92285.69
2023-01-17T15:26:54.671Z,92280.66
2023-01-17T15:29:27.795Z,92283.66
2023-01-17T15:31:58.738Z,92278.47
2023-01-17T15:34:29.378Z,92279.25
2023-01-17T15:37:01.152Z,92268.56
2023-01-17T15:39:31.539Z,92257.72
2023-01-17T15:42:01.580Z,92255.03
2023-01-17T15:44:53.050Z,92253.16
2023-01-17T15:47:30.242Z,92248.75
2023-01-17T15:49:58.356Z,92249.69
2023-01-17T15:52:27.881Z,92246.56
2023-01-17T15:55:00.248Z,92233.97
2023-01-17T15:57:30.365Z,92241.38
2023-01-17T16:00:05.602Z,92235.38
2023-01-17T16:02:42.800Z,92239.00
2023-01-17T16:05:34.636Z,92243.56
2023-01-17T16:08:26.897Z,92240.09
2023-01-17T16:10:58.101Z,92229.56
2023-01-17T16:13:26.147Z,92240.56
2023-01-17T16:15:53.880Z,92248.44
2023-01-17T16:18:24.183Z,92247.34
2023-01-17T16:20:57.869Z,92243.88
2023-01-17T16:23:28.885Z,92243.09
2023-01-17T16:25:56.948Z,92247.97
2023-01-17T16:28:24.596Z,92249.22
2023-01-17T16:30:53.963Z,92255.38
2023-01-17T16:33:21.750Z,92259.13
2023-01-17T16:35:51.158Z,92245.16
2023-01-17T16:38:19.722Z,92243.88
2023-01-17T16:40:48.837Z,92243.09
2023-01-17T16:43:18.879Z,92243.88
2023-01-17T16:45:47.660Z,92252.06
2023-01-17T16:48:18.300Z,92253.78
2023-01-17T16:50:50.630Z,92255.53
2023-01-17T16:53:22.589Z,92265.44
2023-01-17T16:55:55.107Z,92266.06
2023-01-17T16:58:22.782Z,92269.06
2023-01-17T17:00:50.493Z,92279.59
2023-01-17T17:03:19.101Z,92270.47
2023-01-17T17:05:55.013Z,92277.72
2023-01-17T17:08:23.842Z,92286.53
2023-01-17T17:10:53.131Z,92282.59
2023-01-17T17:13:20.869Z,92286.84
2023-01-17T17:15:49.299Z,92287.94
2023-01-17T17:18:18.742Z,92294.41
2023-01-17T17:20:49.495Z,92295.19
2023-01-17T17:23:17.341Z,92302.25
2023-01-17T17:25:45.151Z,92304.94
2023-01-17T17:28:14.200Z,92307.13
2023-01-17T17:30:44.396Z,92318.31
2023-01-17T17:33:12.182Z,92323.66
2023-01-17T17:35:39.898Z,92324.28
2023-01-17T17:38:07.729Z,92336.25
2023-01-17T17:40:35.610Z,92338.91
2023-01-17T17:43:03.421Z,92351.19
2023-01-17T17:45:32.515Z,92362.81
2023-01-17T17:48:03.985Z,92364.88
2023-01-17T17:50:31.653Z,92374.78
2023-01-17T17:52:59.290Z,92376.34
2023-01-17T17:55:26.947Z,92367.19
2023-01-17T17:57:55.016Z,92356.16
2023-01-17T18:00:23.329Z,92347.34
2023-01-17T18:02:52.378Z,92323.28
2023-01-17T18:05:20.117Z,92305.69
2023-01-17T18:07:51.240Z,92299.72
2023-01-17T18:10:19.141Z,92324.84
2023-01-17T18:12:46.873Z,92319.38
2023-01-17T18:15:14.585Z,92325.00
2023-01-17T18:17:42.293Z,92335.06
2023-01-17T18:20:12.315Z,92344.00
2023-01-17T18:22:40.813Z,92344.91
2023-01-17T18:25:11.433Z,92345.72
2023-01-17T18:27:40.360Z,92340.38
2023-01-17T18:30:09.236Z,92346.50
2023-01-17T18:32:38.840Z,92343.81
2023-01-17T18:35:07.423Z,92342.25
2023-01-17T18:37:39.536Z,92347.41
2023-01-17T18:40:08.124Z,92350.88
2023-01-17T18:42:35.810Z,92367.69
2023-01-17T18:45:03.600Z,92370.00
2023-01-17T18:47:31.290Z,92377.53
2023-01-17T18:50:01.997Z,92385.06
2023-01-17T18:52:29.708Z,92394.47
2023-01-17T18:54:58.794Z,92391.34
2023-01-17T18:57:26.527Z,92394.13
2023-01-17T18:59:54.212Z,92403.72
2023-01-17T19:02:21.894Z,92409.25
2023-01-17T19:04:49.636Z,92422.59
2023-01-17T19:07:17.387Z,92419.44
2023-01-17T19:09:45.112Z,92427.50
2023-01-17T19:12:14.304Z,92435.56
2023-01-17T19:14:42.001Z,92432.91
2023-01-17T19:17:09.703Z,92442.50
2023-01-17T19:19:38.144Z,92447.69
2023-01-17T19:22:05.825Z,92450.66
2023-01-17T19:24:35.653Z,92456.97
2023-01-17T19:27:03.694Z,92450.66
2023-01-17T19:29:32.784Z,92457.13
2023-01-17T19:32:00.597Z,92450.81
2023-01-17T19:34:28.316Z,92451.72
2023-01-17T19:36:56.412Z,92453.56
2023-01-17T19:39:26.095Z,92453.63
2023-01-17T19:41:53.913Z,92466.19
2023-01-17T19:44:21.920Z,92476.25
2023-01-17T19:46:51.015Z,92469.81
2023-01-17T19:49:23.937Z,92451.72
2023-01-17T19:51:52.214Z,92450.16
2023-01-17T19:54:19.889Z,92447.78
2023-01-17T19:56:47.633Z,92451.25
2023-01-17T19:59:15.440Z,92449.22
2023-01-17T20:01:43.172Z,92452.38
2023-01-17T20:04:12.807Z,92454.06
2023-01-17T20:06:40.487Z,92464.59
2023-01-17T20:09:08.690Z,92467.13
2023-01-17T20:11:37.013Z,92465.34
2023-01-17T20:14:06.187Z,92460.41
2023-01-17T20:16:36.811Z,92447.31
2023-01-17T20:19:04.811Z,92447.06
2023-01-17T20:21:34.375Z,92440.75
2023-01-17T20:24:04.153Z,92441.69
2023-01-17T20:26:35.602Z,92452.75
2023-01-17T20:29:06.792Z,92455.47
2023-01-17T20:31:38.052Z,92459.63
2023-01-17T20:34:06.683Z,92460.53
2023-01-17T20:36:37.002Z,92468.63
2023-01-17T20:39:05.473Z,92465.16
2023-01-17T20:41:34.936Z,92468.22
2023-01-17T20:44:03.885Z,92466.34
2023-01-17T20:46:35.410Z,92471.28
2023-01-17T20:49:05.497Z,92467.03
2023-01-17T20:51:34.374Z,92465.88
2023-01-17T20:54:03.680Z,92470.91
2023-01-17T20:56:34.659Z,92473.75
2023-01-17T20:59:03.964Z,92461.41
2023-01-17T21:01:31.899Z,92461.41
2023-01-17T21:03:59.747Z,92462.59
2023-01-17T21:06:27.823Z,92466.09
2023-01-17T21:08:55.654Z,92463.25
2023-01-17T21:11:27.498Z,92468.19
2023-01-17T21:13:56.322Z,92466.19
2023-01-17T21:16:27.904Z,92467.47
2023-01-17T21:18:55.920Z,92462.31
2023-01-17T21:21:25.632Z,92465.47
2023-01-17T21:23:55.138Z,92473.31
2023-01-17T21:26:25.658Z,92475.66
2023-01-17T21:28:56.417Z,92470.03
2023-01-17T21:31:26.334Z,92474.97
2023-01-17T21:33:57.257Z,92474.34
2023-01-17T21:36:27.087Z,92471.88
2023-01-17T21:38:57.137Z,92467.78
2023-01-17T21:41:29.438Z,92468.13
2023-01-17T21:43:58.420Z,92467.34
2023-01-17T21:46:27.191Z,92475.00
2023-01-17T21:48:56.695Z,92480.75
2023-01-17T21:51:45.060Z,92480.13
2023-01-17T21:54:12.816Z,92475.41
2023-01-17T21:56:59.557Z,92476.19
2023-01-17T21:59:27.263Z,92477.88
2023-01-17T22:01:54.993Z,92478.38
2023-01-17T22:04:22.844Z,92483.34
2023-01-17T22:06:50.724Z,92479.41
2023-01-17T22:09:18.601Z,92482.56
2023-01-17T22:11:47.689Z,92479.91
2023-01-17T22:14:15.354Z,92495.41
2023-01-17T22:16:43.067Z,92495.91
2023-01-17T22:19:10.782Z,92503.28
2023-01-17T22:21:38.496Z,92498.16
2023-01-17T22:24:07.618Z,92508.53
2023-01-17T22:26:35.329Z,92509.59
2023-01-17T22:29:05.318Z,92513.97
2023-01-17T22:31:33.056Z,92514.09
2023-01-17T22:34:03.364Z,92508.56
2023-01-17T22:36:33.576Z,92504.91
2023-01-17T22:39:01.824Z,92509.75
2023-01-17T22:41:31.261Z,92513.94
2023-01-17T22:44:02.126Z,92519.66
2023-01-17T22:46:32.844Z,92512.53
2023-01-17T22:49:00.849Z,92513.75
2023-01-17T22:51:29.805Z,92516.81
2023-01-17T22:54:00.308Z,92510.41
2023-01-17T23:02:01.174Z,92518.06
2023-01-17T23:04:29.214Z,92516.47
2023-01-17T23:06:57.529Z,92525.69
2023-01-17T23:09:25.185Z,92528.13
2023-01-17T23:11:55.085Z,92533.91
2023-01-17T23:14:24.670Z,92527.16
2023-01-17T23:17:11.875Z,92524.56
2023-01-17T23:19:42.778Z,92529.09
2023-01-17T23:22:19.092Z,92537.44
2023-01-17T23:24:49.521Z,92535.84
2023-01-17T23:27:37.404Z,92544.91
2023-01-17T23:30:07.562Z,92549.38
2023-01-17T23:32:35.501Z,92560.16
2023-01-17T23:35:07.700Z,92557.22
2023-01-17T23:37:52.955Z,92547.28
2023-01-17T23:40:20.681Z,92537.69
2023-01-17T23:43:05.734Z,92540.47
2023-01-17T23:45:35.930Z,92545.84
2023-01-17T23:48:05.445Z,92541.38
2023-01-17T23:50:34.536Z,92541.38
2023-01-17T23:53:06.824Z,92544.84
2023-01-17T23:55:35.938Z,92533.41
2023-01-17T23:58:03.660Z,92542.75
